sensor_id;sensor_type;location;lat;lon;timestamp;P1;durP1;ratioP1;P2;durP2;ratioP2
31130;SDS011;20292;50.944;4.034;2022-07-29T00:00:37;4.30;;;1.60;;
31130;SDS011;20292;50.944;4.034;2022-07-29T00:03:03;6.35;;;1.85;;
31130;SDS011;20292;50.944;4.034;2022-07-29T00:05:29;6.53;;;1.63;;
31130;SDS011;20292;50.944;4.034;2022-07-29T00:07:54;8.57;;;2.92;;
31130;SDS011;20292;50.944;4.034;2022-07-29T00:10:20;3.53;;;2.00;;
31130;SDS011;20292;50.944;4.034;2022-07-29T00:12:46;3.55;;;1.63;;
31130;SDS011;20292;50.944;4.034;2022-07-29T00:15:12;23.73;;;10.75;;
31130;SDS011;20292;50.944;4.034;2022-07-29T00:17:38;6.97;;;2.53;;
31130;SDS011;20292;50.944;4.034;2022-07-29T00:20:04;6.57;;;2.20;;
31130;SDS011;20292;50.944;4.034;2022-07-29T00:22:30;5.88;;;1.83;;
31130;SDS011;20292;50.944;4.034;2022-07-29T00:24:55;6.65;;;2.03;;
31130;SDS011;20292;50.944;4.034;2022-07-29T00:27:21;6.90;;;2.00;;
31130;SDS011;20292;50.944;4.034;2022-07-29T00:29:47;5.65;;;2.03;;
31130;SDS011;20292;50.944;4.034;2022-07-29T00:32:12;3.38;;;2.00;;
31130;SDS011;20292;50.944;4.034;2022-07-29T00:34:38;5.43;;;1.98;;
31130;SDS011;20292;50.944;4.034;2022-07-29T00:37:23;4.32;;;2.35;;
31130;SDS011;20292;50.944;4.034;2022-07-29T00:39:49;9.70;;;2.88;;
31130;SDS011;20292;50.944;4.034;2022-07-29T00:42:15;7.75;;;2.60;;
31130;SDS011;20292;50.944;4.034;2022-07-29T00:44:41;6.10;;;2.58;;
31130;SDS011;20292;50.944;4.034;2022-07-29T00:47:09;9.38;;;2.42;;
31130;SDS011;20292;50.944;4.034;2022-07-29T00:49:35;6.65;;;2.38;;
31130;SDS011;20292;50.944;4.034;2022-07-29T00:52:02;6.18;;;2.17;;
31130;SDS011;20292;50.944;4.034;2022-07-29T00:54:29;5.07;;;2.50;;
31130;SDS011;20292;50.944;4.034;2022-07-29T00:56:56;5.28;;;2.67;;
31130;SDS011;20292;50.944;4.034;2022-07-29T00:59:23;4.82;;;2.55;;
31130;SDS011;20292;50.944;4.034;2022-07-29T01:01:49;7.85;;;2.95;;
31130;SDS011;20292;50.944;4.034;2022-07-29T01:04:15;8.45;;;3.30;;
31130;SDS011;20292;50.944;4.034;2022-07-29T01:06:41;5.30;;;3.10;;
31130;SDS011;20292;50.944;4.034;2022-07-29T01:09:07;7.28;;;2.80;;
31130;SDS011;20292;50.944;4.034;2022-07-29T01:11:34;7.00;;;2.95;;
31130;SDS011;20292;50.944;4.034;2022-07-29T01:14:00;14.20;;;3.10;;
31130;SDS011;20292;50.944;4.034;2022-07-29T01:16:29;11.65;;;3.10;;
31130;SDS011;20292;50.944;4.034;2022-07-29T01:19:00;6.38;;;3.13;;
31130;SDS011;20292;50.944;4.034;2022-07-29T01:27:04;7.10;;;2.97;;
31130;SDS011;20292;50.944;4.034;2022-07-29T01:29:49;7.28;;;2.95;;
31130;SDS011;20292;50.944;4.034;2022-07-29T01:32:21;8.45;;;3.10;;
31130;SDS011;20292;50.944;4.034;2022-07-29T01:39:55;11.18;;;3.22;;
31130;SDS011;20292;50.944;4.034;2022-07-29T01:50:26;14.57;;;3.45;;
31130;SDS011;20292;50.944;4.034;2022-07-29T01:53:04;12.15;;;3.72;;
31130;SDS011;20292;50.944;4.034;2022-07-29T01:55:34;10.23;;;3.22;;
31130;SDS011;20292;50.944;4.034;2022-07-29T01:58:03;7.68;;;3.40;;
31130;SDS011;20292;50.944;4.034;2022-07-29T02:00:31;7.63;;;3.35;;
31130;SDS011;20292;50.944;4.034;2022-07-29T02:02:58;7.18;;;3.50;;
31130;SDS011;20292;50.944;4.034;2022-07-29T02:05:28;5.75;;;3.50;;
31130;SDS011;20292;50.944;4.034;2022-07-29T02:07:57;9.75;;;3.75;;
31130;SDS011;20292;50.944;4.034;2022-07-29T02:10:26;4.70;;;3.10;;
31130;SDS011;20292;50.944;4.034;2022-07-29T02:12:56;8.60;;;3.55;;
31130;SDS011;20292;50.944;4.034;2022-07-29T02:15:24;6.93;;;3.28;;
31130;SDS011;20292;50.944;4.034;2022-07-29T02:17:53;7.60;;;3.50;;
31130;SDS011;20292;50.944;4.034;2022-07-29T02:20:23;7.13;;;3.85;;
31130;SDS011;20292;50.944;4.034;2022-07-29T02:22:51;6.97;;;3.67;;
31130;SDS011;20292;50.944;4.034;2022-07-29T02:25:18;8.55;;;3.75;;
31130;SDS011;20292;50.944;4.034;2022-07-29T02:27:45;9.23;;;3.72;;
31130;SDS011;20292;50.944;4.034;2022-07-29T02:30:13;9.25;;;4.20;;
31130;SDS011;20292;50.944;4.034;2022-07-29T02:32:40;8.23;;;4.00;;
31130;SDS011;20292;50.944;4.034;2022-07-29T02:35:08;11.38;;;4.05;;
31130;SDS011;20292;50.944;4.034;2022-07-29T02:37:36;8.52;;;3.88;;
31130;SDS011;20292;50.944;4.034;2022-07-29T02:40:02;10.13;;;3.95;;
31130;SDS011;20292;50.944;4.034;2022-07-29T02:42:28;6.75;;;4.10;;
31130;SDS011;20292;50.944;4.034;2022-07-29T02:44:56;7.32;;;3.70;;
31130;SDS011;20292;50.944;4.034;2022-07-29T02:47:23;9.23;;;4.10;;
31130;SDS011;20292;50.944;4.034;2022-07-29T02:50:06;12.07;;;3.75;;
31130;SDS011;20292;50.944;4.034;2022-07-29T02:55:29;6.03;;;3.60;;
31130;SDS011;20292;50.944;4.034;2022-07-29T02:58:10;6.10;;;3.92;;
31130;SDS011;20292;50.944;4.034;2022-07-29T03:00:42;11.15;;;4.00;;
31130;SDS011;20292;50.944;4.034;2022-07-29T03:03:12;8.63;;;4.20;;
31130;SDS011;20292;50.944;4.034;2022-07-29T03:05:40;9.10;;;4.43;;
31130;SDS011;20292;50.944;4.034;2022-07-29T03:08:06;7.57;;;4.70;;
31130;SDS011;20292;50.944;4.034;2022-07-29T03:10:34;6.60;;;4.00;;
31130;SDS011;20292;50.944;4.034;2022-07-29T03:13:01;10.70;;;4.82;;
31130;SDS011;20292;50.944;4.034;2022-07-29T03:15:28;7.70;;;4.68;;
31130;SDS011;20292;50.944;4.034;2022-07-29T03:17:54;13.52;;;4.28;;
31130;SDS011;20292;50.944;4.034;2022-07-29T03:20:21;7.72;;;4.18;;
31130;SDS011;20292;50.944;4.034;2022-07-29T03:22:47;9.07;;;4.20;;
31130;SDS011;20292;50.944;4.034;2022-07-29T03:25:14;7.38;;;4.28;;
31130;SDS011;20292;50.944;4.034;2022-07-29T03:27:41;7.07;;;4.05;;
31130;SDS011;20292;50.944;4.034;2022-07-29T03:30:07;8.98;;;4.63;;
31130;SDS011;20292;50.944;4.034;2022-07-29T03:32:34;10.75;;;4.32;;
31130;SDS011;20292;50.944;4.034;2022-07-29T03:35:00;12.13;;;4.28;;
31130;SDS011;20292;50.944;4.034;2022-07-29T03:37:25;13.15;;;4.38;;
31130;SDS011;20292;50.944;4.034;2022-07-29T03:39:52;8.05;;;4.30;;
31130;SDS011;20292;50.944;4.034;2022-07-29T03:42:19;12.00;;;4.07;;
31130;SDS011;20292;50.944;4.034;2022-07-29T03:44:48;8.30;;;4.07;;
31130;SDS011;20292;50.944;4.034;2022-07-29T03:47:17;9.02;;;4.07;;
31130;SDS011;20292;50.944;4.034;2022-07-29T03:49:48;8.23;;;4.28;;
31130;SDS011;20292;50.944;4.034;2022-07-29T03:52:15;9.80;;;4.30;;
31130;SDS011;20292;50.944;4.034;2022-07-29T03:54:42;17.10;;;4.65;;
31130;SDS011;20292;50.944;4.034;2022-07-29T03:57:07;10.98;;;4.47;;
31130;SDS011;20292;50.944;4.034;2022-07-29T03:59:36;8.98;;;3.97;;
31130;SDS011;20292;50.944;4.034;2022-07-29T04:02:03;8.43;;;4.55;;
31130;SDS011;20292;50.944;4.034;2022-07-29T04:04:33;10.23;;;4.43;;
31130;SDS011;20292;50.944;4.034;2022-07-29T04:06:59;7.25;;;3.97;;
31130;SDS011;20292;50.944;4.034;2022-07-29T04:09:25;5.63;;;4.60;;
31130;SDS011;20292;50.944;4.034;2022-07-29T04:11:51;10.68;;;4.80;;
31130;SDS011;20292;50.944;4.034;2022-07-29T04:14:17;8.15;;;4.18;;
31130;SDS011;20292;50.944;4.034;2022-07-29T04:16:43;11.73;;;4.90;;
31130;SDS011;20292;50.944;4.034;2022-07-29T04:19:08;11.18;;;4.47;;
31130;SDS011;20292;50.944;4.034;2022-07-29T04:21:40;7.60;;;4.40;;
31130;SDS011;20292;50.944;4.034;2022-07-29T04:24:06;10.68;;;4.57;;
31130;SDS011;20292;50.944;4.034;2022-07-29T04:26:33;11.43;;;4.40;;
31130;SDS011;20292;50.944;4.034;2022-07-29T04:28:59;9.85;;;4.40;;
31130;SDS011;20292;50.944;4.034;2022-07-29T04:31:24;8.82;;;4.30;;
31130;SDS011;20292;50.944;4.034;2022-07-29T04:33:51;9.65;;;4.50;;
31130;SDS011;20292;50.944;4.034;2022-07-29T04:36:16;8.82;;;4.30;;
31130;SDS011;20292;50.944;4.034;2022-07-29T04:38:42;8.93;;;3.88;;
31130;SDS011;20292;50.944;4.034;2022-07-29T04:41:07;5.93;;;4.18;;
31130;SDS011;20292;50.944;4.034;2022-07-29T04:43:34;9.55;;;4.22;;
31130;SDS011;20292;50.944;4.034;2022-07-29T04:46:00;12.98;;;4.25;;
31130;SDS011;20292;50.944;4.034;2022-07-29T04:48:27;12.05;;;3.75;;
31130;SDS011;20292;50.944;4.034;2022-07-29T04:50:52;6.90;;;3.72;;
31130;SDS011;20292;50.944;4.034;2022-07-29T04:53:18;10.27;;;4.38;;
31130;SDS011;20292;50.944;4.034;2022-07-29T04:55:44;8.10;;;4.10;;
31130;SDS011;20292;50.944;4.034;2022-07-29T04:58:10;8.77;;;4.32;;
31130;SDS011;20292;50.944;4.034;2022-07-29T05:00:36;12.32;;;4.53;;
31130;SDS011;20292;50.944;4.034;2022-07-29T05:03:02;7.88;;;3.75;;
31130;SDS011;20292;50.944;4.034;2022-07-29T05:05:28;7.93;;;3.60;;
31130;SDS011;20292;50.944;4.034;2022-07-29T05:07:54;9.90;;;3.80;;
31130;SDS011;20292;50.944;4.034;2022-07-29T05:10:20;9.57;;;4.03;;
31130;SDS011;20292;50.944;4.034;2022-07-29T05:12:46;9.35;;;3.40;;
31130;SDS011;20292;50.944;4.034;2022-07-29T05:15:12;5.93;;;3.42;;
31130;SDS011;20292;50.944;4.034;2022-07-29T05:17:37;5.13;;;3.45;;
31130;SDS011;20292;50.944;4.034;2022-07-29T05:20:03;6.40;;;3.50;;
31130;SDS011;20292;50.944;4.034;2022-07-29T05:22:30;6.80;;;3.20;;
31130;SDS011;20292;50.944;4.034;2022-07-29T05:24:55;8.90;;;3.72;;
31130;SDS011;20292;50.944;4.034;2022-07-29T05:27:21;6.85;;;2.90;;
31130;SDS011;20292;50.944;4.034;2022-07-29T05:29:47;6.00;;;3.30;;
31130;SDS011;20292;50.944;4.034;2022-07-29T05:32:12;6.78;;;3.83;;
31130;SDS011;20292;50.944;4.034;2022-07-29T05:34:38;9.32;;;3.67;;
31130;SDS011;20292;50.944;4.034;2022-07-29T05:37:04;7.43;;;3.17;;
31130;SDS011;20292;50.944;4.034;2022-07-29T05:39:30;5.78;;;3.55;;
31130;SDS011;20292;50.944;4.034;2022-07-29T05:41:55;6.40;;;3.60;;
31130;SDS011;20292;50.944;4.034;2022-07-29T05:44:21;8.75;;;3.60;;
31130;SDS011;20292;50.944;4.034;2022-07-29T05:46:47;8.63;;;3.63;;
31130;SDS011;20292;50.944;4.034;2022-07-29T05:49:12;9.57;;;3.58;;
31130;SDS011;20292;50.944;4.034;2022-07-29T05:51:38;5.55;;;3.38;;
31130;SDS011;20292;50.944;4.034;2022-07-29T05:54:03;6.53;;;3.38;;
31130;SDS011;20292;50.944;4.034;2022-07-29T05:56:29;8.38;;;3.67;;
31130;SDS011;20292;50.944;4.034;2022-07-29T05:58:55;7.85;;;3.58;;
31130;SDS011;20292;50.944;4.034;2022-07-29T06:01:20;7.18;;;3.22;;
31130;SDS011;20292;50.944;4.034;2022-07-29T06:03:46;7.38;;;3.38;;
31130;SDS011;20292;50.944;4.034;2022-07-29T06:06:12;5.85;;;2.88;;
31130;SDS011;20292;50.944;4.034;2022-07-29T06:08:37;5.60;;;2.97;;
31130;SDS011;20292;50.944;4.034;2022-07-29T06:11:03;7.97;;;3.50;;
31130;SDS011;20292;50.944;4.034;2022-07-29T06:13:30;6.75;;;3.20;;
31130;SDS011;20292;50.944;4.034;2022-07-29T06:15:56;5.82;;;3.17;;
31130;SDS011;20292;50.944;4.034;2022-07-29T06:18:21;6.90;;;3.10;;
31130;SDS011;20292;50.944;4.034;2022-07-29T06:20:52;11.07;;;3.53;;
31130;SDS011;20292;50.944;4.034;2022-07-29T06:23:18;6.78;;;3.10;;
31130;SDS011;20292;50.944;4.034;2022-07-29T06:25:44;10.57;;;3.45;;
31130;SDS011;20292;50.944;4.034;2022-07-29T06:28:10;6.63;;;3.53;;
31130;SDS011;20292;50.944;4.034;2022-07-29T06:30:36;5.28;;;3.53;;
31130;SDS011;20292;50.944;4.034;2022-07-29T06:33:02;9.25;;;3.42;;
31130;SDS011;20292;50.944;4.034;2022-07-29T06:35:28;6.10;;;3.55;;
31130;SDS011;20292;50.944;4.034;2022-07-29T06:37:54;7.13;;;3.42;;
31130;SDS011;20292;50.944;4.034;2022-07-29T06:40:20;4.78;;;3.10;;
31130;SDS011;20292;50.944;4.034;2022-07-29T06:43:04;6.20;;;3.17;;
31130;SDS011;20292;50.944;4.034;2022-07-29T06:45:30;8.20;;;3.70;;
31130;SDS011;20292;50.944;4.034;2022-07-29T06:47:59;7.53;;;3.72;;
31130;SDS011;20292;50.944;4.034;2022-07-29T06:50:24;8.80;;;3.40;;
31130;SDS011;20292;50.944;4.034;2022-07-29T06:52:50;4.65;;;3.30;;
31130;SDS011;20292;50.944;4.034;2022-07-29T06:55:16;7.45;;;3.60;;
31130;SDS011;20292;50.944;4.034;2022-07-29T06:57:44;6.15;;;3.00;;
31130;SDS011;20292;50.944;4.034;2022-07-29T07:00:10;8.45;;;3.25;;
31130;SDS011;20292;50.944;4.034;2022-07-29T07:02:36;5.80;;;3.45;;
31130;SDS011;20292;50.944;4.034;2022-07-29T07:05:02;6.28;;;3.45;;
31130;SDS011;20292;50.944;4.034;2022-07-29T07:07:27;11.32;;;3.63;;
31130;SDS011;20292;50.944;4.034;2022-07-29T07:09:53;4.95;;;3.65;;
31130;SDS011;20292;50.944;4.034;2022-07-29T07:12:18;6.93;;;3.67;;
31130;SDS011;20292;50.944;4.034;2022-07-29T07:14:44;10.13;;;4.20;;
31130;SDS011;20292;50.944;4.034;2022-07-29T07:17:10;7.07;;;3.30;;
31130;SDS011;20292;50.944;4.034;2022-07-29T07:19:35;5.47;;;3.45;;
31130;SDS011;20292;50.944;4.034;2022-07-29T07:22:01;10.00;;;3.70;;
31130;SDS011;20292;50.944;4.034;2022-07-29T07:24:26;6.55;;;4.00;;
31130;SDS011;20292;50.944;4.034;2022-07-29T07:26:52;6.97;;;3.40;;
31130;SDS011;20292;50.944;4.034;2022-07-29T07:29:18;14.35;;;4.32;;
31130;SDS011;20292;50.944;4.034;2022-07-29T07:31:43;7.63;;;3.60;;
31130;SDS011;20292;50.944;4.034;2022-07-29T07:34:09;6.63;;;3.60;;
31130;SDS011;20292;50.944;4.034;2022-07-29T07:36:35;8.15;;;4.30;;
31130;SDS011;20292;50.944;4.034;2022-07-29T07:39:00;6.22;;;3.72;;
31130;SDS011;20292;50.944;4.034;2022-07-29T07:41:26;6.70;;;3.40;;
31130;SDS011;20292;50.944;4.034;2022-07-29T07:43:51;4.93;;;3.80;;
31130;SDS011;20292;50.944;4.034;2022-07-29T07:46:17;10.25;;;3.70;;
31130;SDS011;20292;50.944;4.034;2022-07-29T07:48:43;7.40;;;3.85;;
31130;SDS011;20292;50.944;4.034;2022-07-29T07:51:09;8.73;;;3.95;;
31130;SDS011;20292;50.944;4.034;2022-07-29T07:53:35;8.40;;;3.97;;
31130;SDS011;20292;50.944;4.034;2022-07-29T07:56:00;10.18;;;4.32;;
31130;SDS011;20292;50.944;4.034;2022-07-29T07:58:26;8.15;;;4.38;;
31130;SDS011;20292;50.944;4.034;2022-07-29T08:00:52;6.65;;;3.28;;
31130;SDS011;20292;50.944;4.034;2022-07-29T08:03:17;6.93;;;3.90;;
31130;SDS011;20292;50.944;4.034;2022-07-29T08:05:43;8.23;;;4.30;;
31130;SDS011;20292;50.944;4.034;2022-07-29T08:08:09;7.95;;;4.45;;
31130;SDS011;20292;50.944;4.034;2022-07-29T08:10:34;5.82;;;3.97;;
31130;SDS011;20292;50.944;4.034;2022-07-29T08:13:19;9.43;;;4.82;;
31130;SDS011;20292;50.944;4.034;2022-07-29T08:15:46;9.00;;;5.63;;
31130;SDS011;20292;50.944;4.034;2022-07-29T08:18:12;8.93;;;5.70;;
31130;SDS011;20292;50.944;4.034;2022-07-29T08:20:38;9.05;;;4.25;;
31130;SDS011;20292;50.944;4.034;2022-07-29T08:23:05;8.60;;;3.78;;
31130;SDS011;20292;50.944;4.034;2022-07-29T08:25:33;5.80;;;3.97;;
31130;SDS011;20292;50.944;4.034;2022-07-29T08:28:01;5.63;;;3.72;;
31130;SDS011;20292;50.944;4.034;2022-07-29T08:30:26;6.43;;;4.30;;
31130;SDS011;20292;50.944;4.034;2022-07-29T08:32:52;6.68;;;3.70;;
31130;SDS011;20292;50.944;4.034;2022-07-29T08:35:21;7.60;;;4.00;;
31130;SDS011;20292;50.944;4.034;2022-07-29T08:37:48;11.75;;;4.50;;
31130;SDS011;20292;50.944;4.034;2022-07-29T08:40:14;6.93;;;3.70;;
31130;SDS011;20292;50.944;4.034;2022-07-29T08:42:39;7.07;;;3.95;;
31130;SDS011;20292;50.944;4.034;2022-07-29T08:45:06;7.60;;;3.85;;
31130;SDS011;20292;50.944;4.034;2022-07-29T08:47:32;8.13;;;4.30;;
31130;SDS011;20292;50.944;4.034;2022-07-29T08:50:01;10.43;;;4.03;;
31130;SDS011;20292;50.944;4.034;2022-07-29T08:52:26;5.88;;;4.30;;
31130;SDS011;20292;50.944;4.034;2022-07-29T08:54:55;7.65;;;4.18;;
31130;SDS011;20292;50.944;4.034;2022-07-29T08:57:21;10.52;;;3.83;;
31130;SDS011;20292;50.944;4.034;2022-07-29T08:59:49;8.23;;;3.60;;
31130;SDS011;20292;50.944;4.034;2022-07-29T09:02:20;8.27;;;4.25;;
31130;SDS011;20292;50.944;4.034;2022-07-29T09:04:47;9.80;;;4.10;;
31130;SDS011;20292;50.944;4.034;2022-07-29T09:07:17;6.85;;;4.40;;
31130;SDS011;20292;50.944;4.034;2022-07-29T09:09:43;5.05;;;3.92;;
31130;SDS011;20292;50.944;4.034;2022-07-29T09:12:10;10.00;;;3.80;;
31130;SDS011;20292;50.944;4.034;2022-07-29T09:14:40;5.18;;;3.30;;
31130;SDS011;20292;50.944;4.034;2022-07-29T09:17:06;8.25;;;4.35;;
31130;SDS011;20292;50.944;4.034;2022-07-29T09:19:33;10.13;;;3.65;;
31130;SDS011;20292;50.944;4.034;2022-07-29T09:22:01;7.05;;;4.00;;
31130;SDS011;20292;50.944;4.034;2022-07-29T09:24:44;7.53;;;4.00;;
31130;SDS011;20292;50.944;4.034;2022-07-29T09:29:43;7.32;;;4.22;;
31130;SDS011;20292;50.944;4.034;2022-07-29T09:32:09;7.38;;;4.20;;
31130;SDS011;20292;50.944;4.034;2022-07-29T09:34:37;7.90;;;4.47;;
31130;SDS011;20292;50.944;4.034;2022-07-29T09:37:04;8.75;;;4.20;;
31130;SDS011;20292;50.944;4.034;2022-07-29T09:39:31;7.25;;;4.80;;
31130;SDS011;20292;50.944;4.034;2022-07-29T09:42:03;7.78;;;5.00;;
31130;SDS011;20292;50.944;4.034;2022-07-29T09:47:13;6.82;;;4.40;;
31130;SDS011;20292;50.944;4.034;2022-07-29T09:49:53;10.52;;;4.72;;
31130;SDS011;20292;50.944;4.034;2022-07-29T09:52:23;6.93;;;4.35;;
31130;SDS011;20292;50.944;4.034;2022-07-29T09:54:49;7.70;;;3.88;;
31130;SDS011;20292;50.944;4.034;2022-07-29T09:57:23;5.45;;;3.33;;
31130;SDS011;20292;50.944;4.034;2022-07-29T10:02:22;6.32;;;2.88;;
31130;SDS011;20292;50.944;4.034;2022-07-29T10:04:52;8.77;;;3.28;;
31130;SDS011;20292;50.944;4.034;2022-07-29T10:07:17;7.22;;;3.15;;
31130;SDS011;20292;50.944;4.034;2022-07-29T10:09:54;11.32;;;3.38;;
31130;SDS011;20292;50.944;4.034;2022-07-29T10:12:22;5.22;;;3.30;;
31130;SDS011;20292;50.944;4.034;2022-07-29T10:14:48;8.73;;;3.17;;
31130;SDS011;20292;50.944;4.034;2022-07-29T10:17:15;6.30;;;2.53;;
31130;SDS011;20292;50.944;4.034;2022-07-29T10:19:42;4.32;;;2.88;;
31130;SDS011;20292;50.944;4.034;2022-07-29T10:22:08;6.53;;;2.78;;
31130;SDS011;20292;50.944;4.034;2022-07-29T10:24:36;9.57;;;3.60;;
31130;SDS011;20292;50.944;4.034;2022-07-29T10:27:03;4.28;;;2.67;;
31130;SDS011;20292;50.944;4.034;2022-07-29T10:29:31;5.72;;;3.10;;
31130;SDS011;20292;50.944;4.034;2022-07-29T10:34:48;7.05;;;3.22;;
31130;SDS011;20292;50.944;4.034;2022-07-29T10:43:34;3.88;;;2.50;;
31130;SDS011;20292;50.944;4.034;2022-07-29T10:46:05;5.47;;;2.38;;
31130;SDS011;20292;50.944;4.034;2022-07-29T10:48:31;6.72;;;2.20;;
31130;SDS011;20292;50.944;4.034;2022-07-29T10:56:25;3.50;;;2.45;;
31130;SDS011;20292;50.944;4.034;2022-07-29T10:59:22;4.85;;;2.40;;
31130;SDS011;20292;50.944;4.034;2022-07-29T11:01:51;5.45;;;2.13;;
31130;SDS011;20292;50.944;4.034;2022-07-29T11:07:08;6.93;;;2.70;;
31130;SDS011;20292;50.944;4.034;2022-07-29T11:09:35;6.38;;;2.63;;
31130;SDS011;20292;50.944;4.034;2022-07-29T11:12:00;6.10;;;2.53;;
31130;SDS011;20292;50.944;4.034;2022-07-29T11:17:17;7.05;;;2.40;;
31130;SDS011;20292;50.944;4.034;2022-07-29T11:19:43;5.00;;;2.17;;
31130;SDS011;20292;50.944;4.034;2022-07-29T11:22:09;7.72;;;2.47;;
31130;SDS011;20292;50.944;4.034;2022-07-29T11:24:36;6.68;;;2.63;;
31130;SDS011;20292;50.944;4.034;2022-07-29T11:29:38;7.28;;;2.70;;
31130;SDS011;20292;50.944;4.034;2022-07-29T11:32:09;3.97;;;2.20;;
31130;SDS011;20292;50.944;4.034;2022-07-29T11:34:38;8.32;;;2.70;;
31130;SDS011;20292;50.944;4.034;2022-07-29T11:39:38;6.32;;;2.28;;
31130;SDS011;20292;50.944;4.034;2022-07-29T11:47:23;4.82;;;2.22;;
31130;SDS011;20292;50.944;4.034;2022-07-29T11:49:51;8.40;;;2.30;;
31130;SDS011;20292;50.944;4.034;2022-07-29T11:52:17;7.13;;;2.70;;
31130;SDS011;20292;50.944;4.034;2022-07-29T11:54:43;5.82;;;2.35;;
31130;SDS011;20292;50.944;4.034;2022-07-29T11:57:12;8.88;;;2.40;;
31130;SDS011;20292;50.944;4.034;2022-07-29T11:59:39;8.13;;;2.00;;
31130;SDS011;20292;50.944;4.034;2022-07-29T12:02:09;6.28;;;2.00;;
31130;SDS011;20292;50.944;4.034;2022-07-29T12:04:54;8.07;;;2.15;;
31130;SDS011;20292;50.944;4.034;2022-07-29T12:09:53;9.95;;;3.05;;
31130;SDS011;20292;50.944;4.034;2022-07-29T12:12:19;6.18;;;2.53;;
31130;SDS011;20292;50.944;4.034;2022-07-29T12:14:46;6.65;;;2.40;;
31130;SDS011;20292;50.944;4.034;2022-07-29T12:17:24;4.22;;;1.85;;
31130;SDS011;20292;50.944;4.034;2022-07-29T12:19:52;5.63;;;2.30;;
31130;SDS011;20292;50.944;4.034;2022-07-29T12:22:25;6.07;;;2.20;;
31130;SDS011;20292;50.944;4.034;2022-07-29T12:24:51;6.80;;;2.20;;
31130;SDS011;20292;50.944;4.034;2022-07-29T12:27:18;6.18;;;2.20;;
31130;SDS011;20292;50.944;4.034;2022-07-29T12:29:43;5.97;;;2.33;;
31130;SDS011;20292;50.944;4.034;2022-07-29T12:32:10;5.57;;;2.33;;
31130;SDS011;20292;50.944;4.034;2022-07-29T12:34:35;8.50;;;2.60;;
31130;SDS011;20292;50.944;4.034;2022-07-29T12:37:01;4.82;;;2.25;;
31130;SDS011;20292;50.944;4.034;2022-07-29T12:39:28;4.10;;;2.60;;
31130;SDS011;20292;50.944;4.034;2022-07-29T12:41:54;5.82;;;2.22;;
31130;SDS011;20292;50.944;4.034;2022-07-29T12:44:20;9.73;;;2.40;;
31130;SDS011;20292;50.944;4.034;2022-07-29T12:46:45;11.27;;;2.55;;
31130;SDS011;20292;50.944;4.034;2022-07-29T12:49:25;3.60;;;2.30;;
31130;SDS011;20292;50.944;4.034;2022-07-29T12:51:51;7.93;;;2.70;;
31130;SDS011;20292;50.944;4.034;2022-07-29T12:54:17;10.55;;;3.10;;
31130;SDS011;20292;50.944;4.034;2022-07-29T12:56:43;3.70;;;2.28;;
31130;SDS011;20292;50.944;4.034;2022-07-29T12:59:19;7.32;;;2.30;;
31130;SDS011;20292;50.944;4.034;2022-07-29T13:01:47;6.50;;;2.45;;
31130;SDS011;20292;50.944;4.034;2022-07-29T13:04:31;9.68;;;2.92;;
31130;SDS011;20292;50.944;4.034;2022-07-29T13:07:02;6.32;;;2.38;;
31130;SDS011;20292;50.944;4.034;2022-07-29T13:12:12;7.30;;;2.40;;
31130;SDS011;20292;50.944;4.034;2022-07-29T13:14:43;5.35;;;2.47;;
31130;SDS011;20292;50.944;4.034;2022-07-29T13:17:16;5.82;;;2.55;;
31130;SDS011;20292;50.944;4.034;2022-07-29T13:19:49;5.20;;;2.65;;
31130;SDS011;20292;50.944;4.034;2022-07-29T13:22:17;6.90;;;2.65;;
31130;SDS011;20292;50.944;4.034;2022-07-29T13:24:54;5.05;;;2.72;;
31130;SDS011;20292;50.944;4.034;2022-07-29T13:27:27;6.78;;;3.10;;
31130;SDS011;20292;50.944;4.034;2022-07-29T13:29:57;10.07;;;4.07;;
31130;SDS011;20292;50.944;4.034;2022-07-29T13:32:25;6.38;;;2.63;;
31130;SDS011;20292;50.944;4.034;2022-07-29T13:34:52;5.30;;;2.63;;
31130;SDS011;20292;50.944;4.034;2022-07-29T13:37:18;5.72;;;2.78;;
31130;SDS011;20292;50.944;4.034;2022-07-29T13:39:44;15.30;;;3.42;;
31130;SDS011;20292;50.944;4.034;2022-07-29T13:42:10;6.43;;;3.53;;
31130;SDS011;20292;50.944;4.034;2022-07-29T13:44:38;9.55;;;4.10;;
31130;SDS011;20292;50.944;4.034;2022-07-29T13:47:05;8.93;;;4.13;;
31130;SDS011;20292;50.944;4.034;2022-07-29T13:49:32;11.40;;;4.63;;
31130;SDS011;20292;50.944;4.034;2022-07-29T13:51:58;9.65;;;4.32;;
31130;SDS011;20292;50.944;4.034;2022-07-29T13:54:24;6.70;;;4.15;;
31130;SDS011;20292;50.944;4.034;2022-07-29T13:56:50;6.85;;;4.18;;
31130;SDS011;20292;50.944;4.034;2022-07-29T13:59:16;7.72;;;4.35;;
31130;SDS011;20292;50.944;4.034;2022-07-29T14:01:42;7.75;;;4.05;;
31130;SDS011;20292;50.944;4.034;2022-07-29T14:04:08;4.68;;;4.18;;
31130;SDS011;20292;50.944;4.034;2022-07-29T14:06:34;9.45;;;5.30;;
31130;SDS011;20292;50.944;4.034;2022-07-29T14:09:02;8.27;;;4.82;;
31130;SDS011;20292;50.944;4.034;2022-07-29T14:11:31;9.80;;;4.28;;
31130;SDS011;20292;50.944;4.034;2022-07-29T14:13:56;8.57;;;4.43;;
31130;SDS011;20292;50.944;4.034;2022-07-29T14:16:22;9.00;;;4.07;;
31130;SDS011;20292;50.944;4.034;2022-07-29T14:18:48;6.80;;;3.88;;
31130;SDS011;20292;50.944;4.034;2022-07-29T14:21:13;10.52;;;4.25;;
31130;SDS011;20292;50.944;4.034;2022-07-29T14:23:39;9.02;;;3.25;;
31130;SDS011;20292;50.944;4.034;2022-07-29T14:26:05;9.18;;;3.67;;
31130;SDS011;20292;50.944;4.034;2022-07-29T14:28:31;7.22;;;3.00;;
31130;SDS011;20292;50.944;4.034;2022-07-29T14:30:57;7.35;;;3.28;;
31130;SDS011;20292;50.944;4.034;2022-07-29T14:33:22;7.55;;;3.40;;
31130;SDS011;20292;50.944;4.034;2022-07-29T14:35:48;7.93;;;3.50;;
31130;SDS011;20292;50.944;4.034;2022-07-29T14:38:14;6.63;;;3.35;;
31130;SDS011;20292;50.944;4.034;2022-07-29T14:40:39;5.88;;;2.90;;
31130;SDS011;20292;50.944;4.034;2022-07-29T14:43:05;8.55;;;2.60;;
31130;SDS011;20292;50.944;4.034;2022-07-29T14:45:31;7.97;;;2.60;;
31130;SDS011;20292;50.944;4.034;2022-07-29T14:47:56;5.80;;;2.70;;
31130;SDS011;20292;50.944;4.034;2022-07-29T14:50:22;6.13;;;2.80;;
31130;SDS011;20292;50.944;4.034;2022-07-29T14:52:48;6.65;;;2.60;;
31130;SDS011;20292;50.944;4.034;2022-07-29T14:55:13;6.88;;;2.78;;
31130;SDS011;20292;50.944;4.034;2022-07-29T14:57:39;10.52;;;3.08;;
31130;SDS011;20292;50.944;4.034;2022-07-29T15:00:05;5.38;;;2.20;;
31130;SDS011;20292;50.944;4.034;2022-07-29T15:02:32;4.53;;;2.38;;
31130;SDS011;20292;50.944;4.034;2022-07-29T15:04:58;5.68;;;2.83;;
31130;SDS011;20292;50.944;4.034;2022-07-29T15:07:24;5.97;;;2.60;;
31130;SDS011;20292;50.944;4.034;2022-07-29T15:09:49;6.25;;;2.38;;
31130;SDS011;20292;50.944;4.034;2022-07-29T15:12:15;5.88;;;2.20;;
31130;SDS011;20292;50.944;4.034;2022-07-29T15:14:41;8.98;;;2.50;;
31130;SDS011;20292;50.944;4.034;2022-07-29T15:17:07;7.35;;;2.65;;
31130;SDS011;20292;50.944;4.034;2022-07-29T15:19:33;5.30;;;2.38;;
31130;SDS011;20292;50.944;4.034;2022-07-29T15:21:59;9.43;;;2.80;;
31130;SDS011;20292;50.944;4.034;2022-07-29T15:24:25;5.15;;;2.63;;
31130;SDS011;20292;50.944;4.034;2022-07-29T15:26:51;5.40;;;2.40;;
31130;SDS011;20292;50.944;4.034;2022-07-29T15:29:16;6.30;;;2.63;;
31130;SDS011;20292;50.944;4.034;2022-07-29T15:31:42;7.30;;;2.70;;
31130;SDS011;20292;50.944;4.034;2022-07-29T15:34:08;6.97;;;2.90;;
31130;SDS011;20292;50.944;4.034;2022-07-29T15:36:34;5.45;;;2.80;;
31130;SDS011;20292;50.944;4.034;2022-07-29T15:38:59;5.35;;;2.78;;
31130;SDS011;20292;50.944;4.034;2022-07-29T15:41:26;10.35;;;2.53;;
31130;SDS011;20292;50.944;4.034;2022-07-29T15:43:51;4.90;;;2.80;;
31130;SDS011;20292;50.944;4.034;2022-07-29T15:46:17;5.97;;;2.70;;
31130;SDS011;20292;50.944;4.034;2022-07-29T15:51:29;5.65;;;3.10;;
31130;SDS011;20292;50.944;4.034;2022-07-29T15:53:55;6.40;;;3.30;;